Terminal Aerodrome Forecast
Issued by NWS

Home | Current Version | Previous Version | Text Only | Print | Product List | Glossary On
Versions: 1 2 3 4 5 6 7 8 9 10 11 12 13 14 15 16 17 18 19
000
FTUS46 KSEW 241700
TAFHQM
TAF
KHQM 241724Z 2418/2518 27010KT P6SM SCT015 BKN020 OVC060
     FM242200 29012KT P6SM SCT025 BKN060
     FM250900 29002KT P6SM OVC007
     FM251500 14002KT P6SM OVC015=

USA.gov is the U.S. government's official web portal to all federal, state and local government web resources and services.